createdAt,value
2023-04-02T00:01:02.264Z,18.52
2023-04-02T00:03:54.241Z,18.20
2023-04-02T00:06:32.687Z,16.30
2023-04-02T00:09:04.714Z,19.03
2023-04-02T00:11:44.518Z,20.30
2023-04-02T00:14:36.574Z,20.20
2023-04-02T00:17:06.099Z,23.25
2023-04-02T00:19:47.234Z,19.95
2023-04-02T00:22:21.728Z,17.83
2023-04-02T00:24:54.117Z,21.33
2023-04-02T00:27:22.012Z,23.30
2023-04-02T00:29:52.789Z,16.63
2023-04-02T00:32:31.469Z,14.73
2023-04-02T00:34:59.901Z,17.80
2023-04-02T00:37:39.050Z,21.70
2023-04-02T00:40:17.276Z,22.02
2023-04-02T00:42:44.900Z,23.02
2023-04-02T00:45:31.569Z,25.65
2023-04-02T00:48:01.272Z,21.67
2023-04-02T00:50:39.217Z,20.73
2023-04-02T00:53:24.449Z,16.77
2023-04-02T00:55:52.388Z,20.95
2023-04-02T00:58:26.641Z,18.63
2023-04-02T01:00:54.113Z,14.93
2023-04-02T01:03:22.909Z,24.30
2023-04-02T01:06:03.183Z,20.88
2023-04-02T01:08:58.051Z,18.77
2023-04-02T01:12:18.702Z,10.20
2023-04-02T01:15:14.184Z,12.53
2023-04-02T01:18:06.468Z,10.63
2023-04-02T01:21:32.864Z,11.98
2023-04-02T01:24:09.998Z,13.70
2023-04-02T01:27:26.200Z,14.05
2023-04-02T01:29:56.790Z,13.53
2023-04-02T01:32:27.852Z,15.88
2023-04-02T01:34:56.568Z,16.40
2023-04-02T01:37:34.308Z,17.35
2023-04-02T01:40:38.384Z,12.15
2023-04-02T01:43:41.875Z,11.67
2023-04-02T01:46:32.628Z,12.05
2023-04-02T01:49:22.143Z,13.93
2023-04-02T01:51:56.828Z,17.05
2023-04-02T01:54:28.907Z,16.67
2023-04-02T01:56:57.493Z,12.93
2023-04-02T01:59:24.965Z,14.85
2023-04-02T02:02:07.314Z,12.88
2023-04-02T02:04:39.288Z,13.88
2023-04-02T02:07:15.517Z,13.25
2023-04-02T02:09:46.902Z,12.57
2023-04-02T02:12:16.130Z,14.57
2023-04-02T02:14:52.159Z,16.25
2023-04-02T02:17:34.914Z,19.15
2023-04-02T02:20:06.730Z,18.35
2023-04-02T02:22:46.625Z,17.73
2023-04-02T02:25:22.147Z,17.77
2023-04-02T02:28:15.998Z,21.90
2023-04-02T02:30:56.502Z,18.25
2023-04-02T02:33:42.466Z,20.77
2023-04-02T02:36:55.342Z,21.70
2023-04-02T02:39:33.577Z,20.17
2023-04-02T02:42:29.060Z,22.83
2023-04-02T02:44:58.254Z,19.77
2023-04-02T02:47:32.348Z,21.05
2023-04-02T02:50:14.322Z,20.97
2023-04-02T02:52:53.672Z,18.08
2023-04-02T02:55:36.928Z,17.05
2023-04-02T02:58:28.517Z,20.58
2023-04-02T03:01:12.958Z,14.60
2023-04-02T03:03:42.875Z,14.20
2023-04-02T03:06:16.821Z,15.55
2023-04-02T03:09:01.595Z,16.70
2023-04-02T03:11:51.175Z,14.82
2023-04-02T03:14:34.144Z,17.90
2023-04-02T03:17:17.957Z,15.53
2023-04-02T03:20:02.405Z,16.80
2023-04-02T03:22:38.228Z,16.00
2023-04-02T03:25:05.429Z,17.27
2023-04-02T03:27:42.342Z,15.07
2023-04-02T03:30:59.905Z,16.47
2023-04-02T03:33:51.581Z,15.60
2023-04-02T03:36:57.874Z,16.90
2023-04-02T03:39:47.748Z,18.17
2023-04-02T03:42:26.270Z,13.68
2023-04-02T03:45:15.662Z,17.47
2023-04-02T03:47:53.366Z,17.92
2023-04-02T03:50:34.822Z,17.73
2023-04-02T03:53:04.670Z,14.98
2023-04-02T03:55:37.121Z,19.55
2023-04-02T03:58:39.785Z,18.10
2023-04-02T04:01:43.800Z,15.50
2023-04-02T04:04:18.672Z,19.77
2023-04-02T04:06:49.878Z,19.73
2023-04-02T04:09:35.771Z,17.08
2023-04-02T04:12:36.599Z,18.87
2023-04-02T04:15:08.956Z,22.27
2023-04-02T04:17:41.663Z,22.13
2023-04-02T04:20:22.301Z,19.58
2023-04-02T04:22:56.056Z,22.88
2023-04-02T04:25:33.797Z,20.13
2023-04-02T04:28:21.579Z,21.35
2023-04-02T04:31:01.668Z,23.50
2023-04-02T04:33:40.995Z,21.88
2023-04-02T04:36:28.968Z,21.55
2023-04-02T04:39:23.909Z,24.85
2023-04-02T04:41:52.367Z,22.92
2023-04-02T04:44:49.752Z,19.90
2023-04-02T04:47:30.981Z,24.85
2023-04-02T04:50:27.639Z,14.93
2023-04-02T04:52:54.866Z,22.23
2023-04-02T04:55:36.021Z,19.05
2023-04-02T04:58:42.391Z,21.25
2023-04-02T05:01:42.210Z,17.83
2023-04-02T05:04:50.340Z,18.70
2023-04-02T05:07:22.846Z,23.58
2023-04-02T05:10:08.314Z,18.63
2023-04-02T05:13:05.702Z,28.30
2023-04-02T05:16:18.399Z,22.58
2023-04-02T05:19:05.990Z,22.27
2023-04-02T05:21:51.462Z,20.17
2023-04-02T05:24:37.583Z,26.80
2023-04-02T05:27:28.678Z,23.65
2023-04-02T05:30:20.154Z,24.63
2023-04-02T05:32:57.477Z,25.02
2023-04-02T05:35:35.504Z,23.48
2023-04-02T05:38:06.619Z,27.73
2023-04-02T05:40:43.052Z,24.67
2023-04-02T05:43:11.464Z,27.67
2023-04-02T05:45:46.959Z,27.13
2023-04-02T05:48:31.449Z,26.77
2023-04-02T05:51:00.435Z,24.00
2023-04-02T05:53:41.646Z,25.17
2023-04-02T05:56:33.487Z,23.85
2023-04-02T05:59:23.358Z,29.30
2023-04-02T06:02:19.432Z,19.40
2023-04-02T06:05:11.370Z,28.77
2023-04-02T06:07:57.496Z,22.98
2023-04-02T06:10:33.357Z,22.08
2023-04-02T06:13:08.639Z,22.13
2023-04-02T06:15:42.837Z,14.85
2023-04-02T06:18:19.520Z,22.80
2023-04-02T06:20:48.429Z,20.40
2023-04-02T06:23:50.004Z,20.23
2023-04-02T06:26:32.609Z,23.88
2023-04-02T06:29:09.832Z,21.92
2023-04-02T06:31:51.835Z,21.40
2023-04-02T06:34:30.424Z,18.88
2023-04-02T06:37:35.764Z,24.77
2023-04-02T06:40:44.344Z,26.08
2023-04-02T06:43:36.299Z,21.65
2023-04-02T06:46:37.905Z,26.05
2023-04-02T06:49:26.181Z,24.65
2023-04-02T06:52:02.607Z,17.00
2023-04-02T06:54:31.345Z,28.67
2023-04-02T06:57:05.021Z,27.38
2023-04-02T06:59:36.024Z,21.50
2023-04-02T07:02:22.893Z,24.60
2023-04-02T07:04:50.088Z,25.08
2023-04-02T07:07:18.700Z,24.35
2023-04-02T07:09:47.833Z,23.23
2023-04-02T07:12:18.385Z,23.80
2023-04-02T07:14:47.970Z,21.80
2023-04-02T07:17:20.382Z,23.70
2023-04-02T07:19:49.723Z,30.60
2023-04-02T07:22:21.490Z,25.88
2023-04-02T07:24:52.837Z,19.73
2023-04-02T07:27:19.916Z,26.35
2023-04-02T07:29:47.016Z,23.25
2023-04-02T07:32:14.656Z,21.85
2023-04-02T07:34:42.012Z,22.98
2023-04-02T07:37:14.554Z,25.42
2023-04-02T07:39:41.838Z,26.42
2023-04-02T07:42:09.257Z,19.60
2023-04-02T07:44:36.390Z,24.08
2023-04-02T07:47:03.915Z,25.13
2023-04-02T07:49:31.163Z,29.05
2023-04-02T07:51:58.235Z,20.00
2023-04-02T07:54:27.172Z,21.58
2023-04-02T07:56:54.347Z,20.23
2023-04-02T07:59:21.623Z,22.42
2023-04-02T08:01:48.907Z,18.88
2023-04-02T08:04:22.112Z,16.88
2023-04-02T08:06:50.560Z,18.05
2023-04-02T08:09:17.869Z,14.73
2023-04-02T08:11:46.472Z,14.70
2023-04-02T08:14:14.453Z,13.98
2023-04-02T08:16:55.798Z,17.10
2023-04-02T08:19:23.271Z,12.60
2023-04-02T08:21:52.055Z,14.55
2023-04-02T08:24:19.640Z,14.65
2023-04-02T08:26:49.255Z,12.88
2023-04-02T08:29:16.381Z,12.88
2023-04-02T08:31:43.508Z,13.82
2023-04-02T08:34:10.923Z,14.27
2023-04-02T08:36:41.871Z,13.45
2023-04-02T08:39:12.774Z,10.57
2023-04-02T08:41:54.139Z,15.80
2023-04-02T08:44:27.012Z,12.85
2023-04-02T08:47:03.897Z,13.32
2023-04-02T08:49:56.589Z,14.00
2023-04-02T08:52:29.156Z,16.17
2023-04-02T08:54:58.092Z,18.35
2023-04-02T08:57:51.787Z,20.13
2023-04-02T09:00:42.246Z,17.17
2023-04-02T09:03:35.427Z,15.48
2023-04-02T09:06:04.321Z,14.85
2023-04-02T09:08:33.435Z,18.77
2023-04-02T09:11:13.148Z,19.40
2023-04-02T09:13:47.983Z,17.45
2023-04-02T09:16:22.464Z,20.75
2023-04-02T09:18:52.894Z,16.48
2023-04-02T09:21:35.325Z,17.63
2023-04-02T09:24:03.976Z,20.60
2023-04-02T09:26:34.047Z,22.75
2023-04-02T09:29:12.802Z,16.53
2023-04-02T09:31:58.284Z,20.48
2023-04-02T09:34:30.886Z,18.27
2023-04-02T09:37:15.137Z,15.13
2023-04-02T09:39:42.410Z,23.13
2023-04-02T09:42:34.973Z,17.05
2023-04-02T09:45:22.914Z,19.58
2023-04-02T09:47:52.377Z,20.92
2023-04-02T09:50:23.328Z,28.55
2023-04-02T09:52:51.401Z,28.48
2023-04-02T09:55:24.208Z,28.20
2023-04-02T09:58:08.078Z,17.67
2023-04-02T10:00:35.559Z,19.85
2023-04-02T10:03:34.582Z,29.33
2023-04-02T10:06:11.043Z,20.05
2023-04-02T10:08:42.305Z,24.20
2023-04-02T10:11:26.908Z,22.02
2023-04-02T10:14:06.641Z,27.33
2023-04-02T10:16:51.944Z,24.00
2023-04-02T10:19:39.364Z,16.58
2023-04-02T10:22:19.738Z,17.05
2023-04-02T10:24:47.557Z,12.15
2023-04-02T10:27:38.254Z,16.70
2023-04-02T10:30:58.480Z,16.85
2023-04-02T10:33:34.462Z,13.90
2023-04-02T10:36:50.570Z,12.50
2023-04-02T10:39:39.064Z,16.30
2023-04-02T10:42:35.688Z,13.90
2023-04-02T10:45:37.584Z,12.32
2023-04-02T10:48:50.103Z,23.23
2023-04-02T10:51:38.861Z,19.65
2023-04-02T10:54:30.754Z,12.73
2023-04-02T10:57:42.047Z,15.55
2023-04-02T11:00:13.099Z,12.40
2023-04-02T11:03:06.080Z,16.48
2023-04-02T11:05:45.704Z,16.33
2023-04-02T11:08:30.735Z,13.70
2023-04-02T11:11:25.319Z,12.98
2023-04-02T11:14:14.424Z,12.93
2023-04-02T11:16:44.440Z,14.57
2023-04-02T11:19:15.062Z,12.40
2023-04-02T11:22:18.254Z,13.55
2023-04-02T11:24:54.578Z,17.02
2023-04-02T11:27:33.622Z,8.75
2023-04-02T11:30:16.005Z,8.93
2023-04-02T11:32:47.404Z,9.83
2023-04-02T11:35:41.563Z,9.55
2023-04-02T11:38:12.537Z,8.70
2023-04-02T11:40:57.159Z,11.23
2023-04-02T11:43:33.287Z,8.45
2023-04-02T11:46:16.855Z,9.73
2023-04-02T11:48:44.517Z,7.25
2023-04-02T11:51:21.430Z,6.57
2023-04-02T11:53:50.745Z,8.30
2023-04-02T11:56:49.010Z,9.40
2023-04-02T11:59:58.944Z,9.13
2023-04-02T12:02:36.808Z,12.00
2023-04-02T12:05:43.125Z,8.10
2023-04-02T12:09:04.858Z,9.35
2023-04-02T12:11:40.827Z,9.85
2023-04-02T12:14:36.767Z,8.57
2023-04-02T12:17:19.790Z,11.43
2023-04-02T12:20:10.386Z,11.25
2023-04-02T12:22:50.708Z,11.23
2023-04-02T12:25:21.647Z,7.97
2023-04-02T12:28:07.709Z,9.57
2023-04-02T12:30:36.017Z,9.45
2023-04-02T12:33:37.097Z,12.07
2023-04-02T12:36:22.949Z,9.38
2023-04-02T12:38:58.452Z,8.88
2023-04-02T12:41:33.275Z,9.53
2023-04-02T12:44:06.540Z,9.02
2023-04-02T12:46:35.978Z,8.90
2023-04-02T12:49:35.572Z,7.93
2023-04-02T12:52:07.804Z,8.35
2023-04-02T12:54:47.446Z,8.70
2023-04-02T12:57:27.606Z,6.60
2023-04-02T13:00:18.194Z,7.82
2023-04-02T13:03:01.436Z,10.02
2023-04-02T13:05:41.930Z,12.60
2023-04-02T13:08:27.204Z,7.33
2023-04-02T13:11:00.957Z,8.77
2023-04-02T13:13:35.296Z,8.20
2023-04-02T13:16:29.000Z,9.70
2023-04-02T13:19:21.793Z,11.40
2023-04-02T13:21:49.051Z,10.47
2023-04-02T13:24:28.935Z,9.32
2023-04-02T13:27:03.741Z,11.05
2023-04-02T13:29:36.398Z,7.63
2023-04-02T13:32:12.532Z,9.13
2023-04-02T13:34:39.635Z,15.67
2023-04-02T13:37:06.738Z,10.90
2023-04-02T13:39:33.934Z,11.82
2023-04-02T13:42:04.115Z,10.77
2023-04-02T13:44:34.027Z,8.45
2023-04-02T13:47:01.465Z,8.20
2023-04-02T13:49:29.326Z,20.45
2023-04-02T13:52:00.521Z,20.88
2023-04-02T13:54:31.440Z,12.88
2023-04-02T13:56:58.649Z,8.30
2023-04-02T13:59:27.796Z,12.50
2023-04-02T14:02:02.890Z,7.60
2023-04-02T14:04:34.776Z,9.77
2023-04-02T14:07:36.546Z,12.13
2023-04-02T14:10:24.520Z,14.70
2023-04-02T14:13:18.396Z,15.67
2023-04-02T14:15:55.166Z,13.68
2023-04-02T14:18:43.684Z,11.77
2023-04-02T14:21:34.845Z,11.25
2023-04-02T14:24:01.931Z,9.25
2023-04-02T14:26:59.268Z,9.23
2023-04-02T14:29:37.707Z,8.18
2023-04-02T14:32:23.036Z,15.38
2023-04-02T14:35:22.163Z,10.20
2023-04-02T14:38:12.138Z,11.18
2023-04-02T14:40:51.991Z,8.07
2023-04-02T14:43:31.818Z,9.50
2023-04-02T14:46:05.988Z,10.73
2023-04-02T14:48:51.261Z,8.10
2023-04-02T14:51:37.589Z,8.73
2023-04-02T14:54:51.834Z,9.47
2023-04-02T14:57:49.036Z,8.68
2023-04-02T15:00:41.872Z,9.30
2023-04-02T15:03:29.638Z,10.05
2023-04-02T15:06:06.544Z,9.77
2023-04-02T15:09:02.076Z,11.17
2023-04-02T15:11:41.434Z,8.90
2023-04-02T15:14:35.597Z,8.05
2023-04-02T15:17:02.867Z,8.13
2023-04-02T15:19:30.259Z,11.30
2023-04-02T15:22:26.738Z,8.87
2023-04-02T15:25:25.237Z,8.05
2023-04-02T15:28:23.659Z,14.35
2023-04-02T15:30:58.881Z,22.65
2023-04-02T15:33:45.027Z,14.23
2023-04-02T15:36:23.938Z,16.88
2023-04-02T15:39:00.498Z,13.43
2023-04-02T15:41:42.577Z,8.18
2023-04-02T15:44:15.899Z,16.38
2023-04-02T15:47:09.274Z,10.45
2023-04-02T15:50:06.972Z,10.50
2023-04-02T15:52:54.729Z,12.52
2023-04-02T15:55:46.586Z,14.25
2023-04-02T15:58:44.015Z,11.98
2023-04-02T16:01:40.828Z,25.52
2023-04-02T16:04:55.832Z,10.38
2023-04-02T16:07:49.671Z,6.75
2023-04-02T16:10:37.995Z,7.72
2023-04-02T16:13:34.979Z,9.18
2023-04-02T16:16:10.129Z,13.20
2023-04-02T16:19:16.572Z,10.87
2023-04-02T16:21:59.583Z,18.02
2023-04-02T16:24:27.150Z,10.68
2023-04-02T16:27:24.720Z,8.55
2023-04-02T16:30:35.323Z,10.63
2023-04-02T16:33:46.048Z,7.60
2023-04-02T16:36:43.270Z,6.15
2023-04-02T16:39:38.245Z,7.70
2023-04-02T16:42:17.482Z,9.82
2023-04-02T16:45:29.003Z,8.25
2023-04-02T16:48:16.390Z,7.70
2023-04-02T16:50:57.100Z,7.53
2023-04-02T16:54:03.989Z,7.57
2023-04-02T16:57:11.204Z,9.48
2023-04-02T17:00:01.358Z,6.07
2023-04-02T17:02:51.539Z,7.27
2023-04-02T17:05:40.655Z,6.45
2023-04-02T17:08:25.146Z,7.63
2023-04-02T17:11:07.731Z,5.30
2023-04-02T17:13:43.234Z,6.43
2023-04-02T17:16:56.180Z,32.80
2023-04-02T17:19:27.423Z,11.70
2023-04-02T17:22:01.693Z,6.05
2023-04-02T17:24:44.717Z,6.47
2023-04-02T17:27:20.785Z,7.57
2023-04-02T17:29:55.579Z,7.53
2023-04-02T17:32:33.957Z,6.28
2023-04-02T17:35:32.402Z,5.65
2023-04-02T17:38:09.569Z,9.27
2023-04-02T17:40:48.581Z,7.13
2023-04-02T17:43:21.443Z,9.50
2023-04-02T17:45:54.489Z,6.45
2023-04-02T17:48:49.192Z,5.47
2023-04-02T17:51:35.793Z,5.78
2023-04-02T17:54:05.530Z,7.60
2023-04-02T17:56:53.448Z,7.13
2023-04-02T18:00:04.566Z,7.40
2023-04-02T18:03:14.192Z,8.68
2023-04-02T18:06:19.207Z,7.25
2023-04-02T18:08:55.405Z,10.25
2023-04-02T18:11:56.599Z,11.55
2023-04-02T18:14:55.801Z,7.68
2023-04-02T18:18:17.652Z,7.68
2023-04-02T18:21:15.051Z,8.43
2023-04-02T18:24:07.833Z,7.40
2023-04-02T18:27:29.059Z,7.53
2023-04-02T18:30:27.434Z,7.18
2023-04-02T18:33:46.577Z,8.70
2023-04-02T18:36:45.367Z,7.03
2023-04-02T18:39:31.880Z,9.55
2023-04-02T18:42:39.964Z,9.40
2023-04-02T18:45:42.499Z,10.82
2023-04-02T18:48:34.083Z,10.70
2023-04-02T18:51:02.283Z,11.82
2023-04-02T18:53:32.846Z,9.93
2023-04-02T18:56:18.246Z,14.52
2023-04-02T18:58:52.827Z,12.20
2023-04-02T19:01:49.069Z,11.35
2023-04-02T19:04:32.975Z,11.40
2023-04-02T19:07:14.717Z,11.82
2023-04-02T19:09:47.613Z,11.00
2023-04-02T19:12:23.639Z,13.25
2023-04-02T19:14:52.543Z,13.20
2023-04-02T19:17:37.150Z,11.85
2023-04-02T19:20:28.630Z,12.68
2023-04-02T19:23:22.998Z,13.90
2023-04-02T19:26:16.441Z,17.70
2023-04-02T19:29:29.226Z,13.98
2023-04-02T19:32:22.369Z,15.55
2023-04-02T19:35:07.202Z,14.02
2023-04-02T19:37:43.535Z,11.30
2023-04-02T19:40:22.419Z,13.20
2023-04-02T19:42:52.660Z,11.35
2023-04-02T19:45:28.874Z,12.65
2023-04-02T19:47:59.191Z,12.10
2023-04-02T19:50:26.746Z,14.57
2023-04-02T19:52:53.848Z,17.90
2023-04-02T19:55:20.952Z,13.55
2023-04-02T19:57:48.033Z,13.65
2023-04-02T20:00:15.888Z,10.88
2023-04-02T20:02:43.095Z,13.13
2023-04-02T20:05:10.691Z,11.35
2023-04-02T20:07:37.792Z,15.85
2023-04-02T20:10:05.657Z,21.90
2023-04-02T20:12:32.726Z,17.67
2023-04-02T20:14:59.751Z,17.83
2023-04-02T20:17:28.230Z,18.52
2023-04-02T20:19:55.635Z,13.35
2023-04-02T20:22:23.428Z,13.55
2023-04-02T20:24:50.685Z,14.32
2023-04-02T20:27:18.818Z,12.48
2023-04-02T20:29:46.209Z,13.23
2023-04-02T20:32:13.211Z,14.73
2023-04-02T20:34:40.320Z,11.48
2023-04-02T20:37:07.798Z,13.25
2023-04-02T20:39:34.866Z,11.13
2023-04-02T20:42:03.369Z,12.35
2023-04-02T20:44:30.671Z,16.13
2023-04-02T20:46:57.887Z,10.35
2023-04-02T20:49:25.053Z,12.15
2023-04-02T20:51:52.804Z,10.40
2023-04-02T20:54:19.951Z,13.18
2023-04-02T20:56:47.364Z,10.05
2023-04-02T20:59:14.424Z,13.07
2023-04-02T21:01:41.609Z,12.35
2023-04-02T21:04:09.220Z,12.88
2023-04-02T21:06:39.197Z,11.68
2023-04-02T21:09:14.575Z,13.70
2023-04-02T21:11:42.094Z,13.63
2023-04-02T21:14:09.385Z,13.13
2023-04-02T21:16:37.052Z,12.07
2023-04-02T21:19:07.376Z,11.10
2023-04-02T21:21:36.183Z,12.27
2023-04-02T21:24:06.662Z,13.45
2023-04-02T21:26:37.958Z,14.10
2023-04-02T21:29:06.251Z,13.50
2023-04-02T21:31:37.690Z,14.50
2023-04-02T21:34:06.799Z,20.80
2023-04-02T21:36:37.700Z,13.80
2023-04-02T21:39:08.735Z,14.43
2023-04-02T21:41:39.863Z,12.65
2023-04-02T21:44:09.931Z,12.15
2023-04-02T21:46:40.051Z,12.50
2023-04-02T21:49:08.408Z,12.77
2023-04-02T21:51:37.464Z,15.65
2023-04-02T21:54:04.986Z,11.65
2023-04-02T21:56:38.474Z,17.17
2023-04-02T21:59:07.630Z,14.18
2023-04-02T22:01:39.635Z,20.65
2023-04-02T22:04:08.637Z,15.88
2023-04-02T22:06:42.152Z,15.43
2023-04-02T22:09:14.255Z,17.65
2023-04-02T22:11:48.310Z,13.68
2023-04-02T22:14:16.100Z,13.48
2023-04-02T22:16:43.430Z,11.50
2023-04-02T22:19:14.558Z,14.07
2023-04-02T22:21:42.529Z,14.07
2023-04-02T22:24:14.768Z,14.00
2023-04-02T22:26:42.491Z,19.55
2023-04-02T22:29:09.557Z,13.05
2023-04-02T22:31:36.987Z,11.43
2023-04-02T22:34:06.175Z,9.60
2023-04-02T22:36:34.235Z,9.50
2023-04-02T22:39:05.338Z,10.00
2023-04-02T22:41:33.074Z,13.23
2023-04-02T22:44:01.971Z,10.20
2023-04-02T22:46:29.986Z,13.23
2023-04-02T22:48:57.816Z,11.90
2023-04-02T22:51:27.633Z,11.60
2023-04-02T22:53:56.823Z,11.18
2023-04-02T22:56:32.341Z,12.00
2023-04-02T22:58:59.654Z,9.57
2023-04-02T23:01:33.940Z,14.90
2023-04-02T23:04:01.477Z,11.95
2023-04-02T23:06:28.959Z,13.00
2023-04-02T23:08:56.373Z,9.98
2023-04-02T23:11:27.424Z,12.05
2023-04-02T23:13:56.864Z,11.05
2023-04-02T23:16:27.202Z,14.90
2023-04-02T23:18:55.680Z,12.20
2023-04-02T23:21:23.911Z,10.98
2023-04-02T23:23:51.607Z,10.80
2023-04-02T23:26:29.448Z,11.05
2023-04-02T23:28:58.595Z,12.55
2023-04-02T23:31:26.377Z,10.15
2023-04-02T23:33:54.173Z,11.38
2023-04-02T23:36:30.410Z,8.52
2023-04-02T23:39:09.681Z,10.57
2023-04-02T23:41:39.626Z,11.18
2023-04-02T23:44:07.373Z,8.73
2023-04-02T23:46:34.749Z,8.95
2023-04-02T23:49:03.853Z,12.18
2023-04-02T23:51:32.476Z,11.90
2023-04-02T23:54:00.255Z,12.77
2023-04-02T23:56:27.700Z,9.13
2023-04-02T23:58:54.862Z,14.52
